Aérodrome :
LOGIN :

S'inscrire | Disclaimer

   EN    FR    IT 

 










Légende :    VFR   VFR Marginal   IFR   IFR Intensif   IFR Très Intensif
Visi : 
Plafond : 
>= 8 km
>= 3000ft
5 à 8 km
1000 à 3000 ft
1500m à 5 km
500 à 1000 ft
800 à 1500m
200 à 500 ft
< 800m
< 200 ft
Symboles :   Orages  Brouillard  Fortes neiges  Fortes précipitations  Vent > 20 kt
SIGMETs :   Divers  Orages  Givrage  Turbulence  Onde Orograph.  Cendres Volcan.






- Altitude de l'aérodrome : 177 ft
- Code IATA : BRI


LIBD - Palese Macchie Bari

DERNIER METAR :
  • 061720Z 26004KT 0400 R07/0600N FG BKN002 13/12 Q1021

METARs EXPIRÉS :
  • 061650Z VRB02KT 0300 R07/0600N FG BKN002 13/12 Q1021
  • 061620Z 29004KT 0300 R07/0700N FG BKN002 13/12 Q1021
  • 061550Z 31005KT 0200 R07/0750N FG BKN002 13/12 Q1021
  • 061520Z 32003KT 0200 R07/0800N FG BKN002 13/12 Q1021
  • 061450Z 29004KT 0100 R07/0800N FG BKN002 13/12 Q1022

TAF TAF LIBD
Valide du 06 à 18h jusqu'au 07 à 18h UTC


061700Z 0618/0718 VRB05KT 0400 FG BKN002
BECMG 0619/0622 26010KT 6000 SCT040
BECMG 0709/0711 010010KT
BECMG 0713/0715 VRB05KT



MET'MAP, la Météo Aéronautique d'un coup d'oeil ! - Copyright ORBIFLY Décembre 2007 - Disclaimer

ORBIFLY MET'MAP TEAM :

Programmation & Développement : Alexandra Zaïnal
Sur une idée originale de : Baudouin d'Aumeries
Assistance à la programmation : Marc-Olivier Méhu
Soutien technique & logistique : Manuel Goepfert

Contact : metmap@orbifly.com




SOURCES & CREDITS :

   NOAA